sensor_id;sensor_type;location;lat;lon;timestamp;P1;durP1;ratioP1;P2;durP2;ratioP2
52306;SDS011;38249;48.920;12.882;2022-08-30T00:00:50;7.95;;;6.25;;
52306;SDS011;38249;48.920;12.882;2022-08-30T00:03:30;11.00;;;6.63;;
52306;SDS011;38249;48.920;12.882;2022-08-30T00:06:01;8.88;;;6.45;;
52306;SDS011;38249;48.920;12.882;2022-08-30T00:08:29;8.68;;;6.68;;
52306;SDS011;38249;48.920;12.882;2022-08-30T00:10:56;7.05;;;6.35;;
52306;SDS011;38249;48.920;12.882;2022-08-30T00:13:23;7.30;;;6.38;;
52306;SDS011;38249;48.920;12.882;2022-08-30T00:15:51;7.53;;;6.57;;
52306;SDS011;38249;48.920;12.882;2022-08-30T00:18:18;6.85;;;6.20;;
52306;SDS011;38249;48.920;12.882;2022-08-30T00:20:46;8.63;;;6.50;;
52306;SDS011;38249;48.920;12.882;2022-08-30T00:23:13;8.63;;;6.90;;
52306;SDS011;38249;48.920;12.882;2022-08-30T00:25:41;7.82;;;6.85;;
52306;SDS011;38249;48.920;12.882;2022-08-30T00:28:08;9.00;;;7.30;;
52306;SDS011;38249;48.920;12.882;2022-08-30T00:30:36;7.72;;;6.97;;
52306;SDS011;38249;48.920;12.882;2022-08-30T00:33:04;7.22;;;6.40;;
52306;SDS011;38249;48.920;12.882;2022-08-30T00:35:31;9.23;;;6.80;;
52306;SDS011;38249;48.920;12.882;2022-08-30T00:37:58;7.22;;;6.53;;
52306;SDS011;38249;48.920;12.882;2022-08-30T00:40:24;8.50;;;7.40;;
52306;SDS011;38249;48.920;12.882;2022-08-30T00:42:53;9.93;;;7.57;;
52306;SDS011;38249;48.920;12.882;2022-08-30T00:45:21;8.98;;;7.20;;
52306;SDS011;38249;48.920;12.882;2022-08-30T00:47:50;12.00;;;7.20;;
52306;SDS011;38249;48.920;12.882;2022-08-30T00:50:19;8.48;;;6.50;;
52306;SDS011;38249;48.920;12.882;2022-08-30T00:52:49;8.40;;;7.20;;
52306;SDS011;38249;48.920;12.882;2022-08-30T00:55:18;8.15;;;7.00;;
52306;SDS011;38249;48.920;12.882;2022-08-30T00:57:46;8.43;;;7.45;;
52306;SDS011;38249;48.920;12.882;2022-08-30T01:00:15;12.35;;;8.10;;
52306;SDS011;38249;48.920;12.882;2022-08-30T01:02:42;8.35;;;7.15;;
52306;SDS011;38249;48.920;12.882;2022-08-30T01:05:10;8.68;;;6.95;;
52306;SDS011;38249;48.920;12.882;2022-08-30T01:07:40;8.32;;;7.30;;
52306;SDS011;38249;48.920;12.882;2022-08-30T01:10:07;8.25;;;7.00;;
52306;SDS011;38249;48.920;12.882;2022-08-30T01:12:36;11.13;;;8.73;;
52306;SDS011;38249;48.920;12.882;2022-08-30T01:15:04;9.15;;;8.20;;
52306;SDS011;38249;48.920;12.882;2022-08-30T01:17:31;11.15;;;8.30;;
52306;SDS011;38249;48.920;12.882;2022-08-30T01:20:00;11.07;;;8.10;;
52306;SDS011;38249;48.920;12.882;2022-08-30T01:22:32;9.35;;;7.38;;
52306;SDS011;38249;48.920;12.882;2022-08-30T01:25:06;12.15;;;7.68;;
52306;SDS011;38249;48.920;12.882;2022-08-30T01:27:35;9.75;;;7.72;;
52306;SDS011;38249;48.920;12.882;2022-08-30T01:30:05;10.55;;;7.75;;
52306;SDS011;38249;48.920;12.882;2022-08-30T01:32:37;8.88;;;7.63;;
52306;SDS011;38249;48.920;12.882;2022-08-30T01:37:34;11.20;;;7.55;;
52306;SDS011;38249;48.920;12.882;2022-08-30T01:40:02;11.73;;;7.35;;
52306;SDS011;38249;48.920;12.882;2022-08-30T01:42:31;10.07;;;8.30;;
52306;SDS011;38249;48.920;12.882;2022-08-30T01:44:57;9.10;;;7.25;;
52306;SDS011;38249;48.920;12.882;2022-08-30T01:47:24;11.13;;;7.80;;
52306;SDS011;38249;48.920;12.882;2022-08-30T01:49:51;9.00;;;7.40;;
52306;SDS011;38249;48.920;12.882;2022-08-30T01:52:18;8.32;;;7.03;;
52306;SDS011;38249;48.920;12.882;2022-08-30T01:54:45;9.07;;;7.65;;
52306;SDS011;38249;48.920;12.882;2022-08-30T01:57:13;9.82;;;7.60;;
52306;SDS011;38249;48.920;12.882;2022-08-30T01:59:42;8.82;;;7.00;;
52306;SDS011;38249;48.920;12.882;2022-08-30T02:02:11;10.25;;;7.43;;
52306;SDS011;38249;48.920;12.882;2022-08-30T02:04:39;11.48;;;7.65;;
52306;SDS011;38249;48.920;12.882;2022-08-30T02:07:06;10.05;;;7.32;;
52306;SDS011;38249;48.920;12.882;2022-08-30T02:09:33;8.10;;;6.90;;
52306;SDS011;38249;48.920;12.882;2022-08-30T02:12:01;8.75;;;7.85;;
52306;SDS011;38249;48.920;12.882;2022-08-30T02:14:28;8.75;;;7.53;;
52306;SDS011;38249;48.920;12.882;2022-08-30T02:16:56;8.45;;;7.60;;
52306;SDS011;38249;48.920;12.882;2022-08-30T02:19:22;8.57;;;7.45;;
52306;SDS011;38249;48.920;12.882;2022-08-30T02:21:49;10.57;;;7.30;;
52306;SDS011;38249;48.920;12.882;2022-08-30T02:24:16;7.60;;;6.80;;
52306;SDS011;38249;48.920;12.882;2022-08-30T02:26:42;7.88;;;6.80;;
52306;SDS011;38249;48.920;12.882;2022-08-30T02:29:09;9.23;;;7.15;;
52306;SDS011;38249;48.920;12.882;2022-08-30T02:31:35;11.05;;;7.30;;
52306;SDS011;38249;48.920;12.882;2022-08-30T02:34:03;7.88;;;7.03;;
52306;SDS011;38249;48.920;12.882;2022-08-30T02:36:30;11.30;;;7.60;;
52306;SDS011;38249;48.920;12.882;2022-08-30T02:38:56;11.25;;;7.90;;
52306;SDS011;38249;48.920;12.882;2022-08-30T02:41:23;9.02;;;7.78;;
52306;SDS011;38249;48.920;12.882;2022-08-30T02:43:49;9.18;;;7.50;;
52306;SDS011;38249;48.920;12.882;2022-08-30T02:46:16;10.25;;;7.63;;
52306;SDS011;38249;48.920;12.882;2022-08-30T02:48:43;9.77;;;7.60;;
52306;SDS011;38249;48.920;12.882;2022-08-30T02:51:12;8.82;;;7.20;;
52306;SDS011;38249;48.920;12.882;2022-08-30T02:53:39;9.82;;;7.97;;
52306;SDS011;38249;48.920;12.882;2022-08-30T02:56:07;11.93;;;7.88;;
52306;SDS011;38249;48.920;12.882;2022-08-30T02:58:35;14.15;;;10.35;;
52306;SDS011;38249;48.920;12.882;2022-08-30T03:01:02;11.93;;;10.00;;
52306;SDS011;38249;48.920;12.882;2022-08-30T03:03:29;15.70;;;12.52;;
52306;SDS011;38249;48.920;12.882;2022-08-30T03:05:55;18.83;;;15.40;;
52306;SDS011;38249;48.920;12.882;2022-08-30T03:08:23;9.95;;;8.68;;
52306;SDS011;38249;48.920;12.882;2022-08-30T03:10:49;12.75;;;10.00;;
52306;SDS011;38249;48.920;12.882;2022-08-30T03:13:16;10.07;;;8.38;;
52306;SDS011;38249;48.920;12.882;2022-08-30T03:15:43;9.50;;;8.50;;
52306;SDS011;38249;48.920;12.882;2022-08-30T03:18:09;11.55;;;8.82;;
52306;SDS011;38249;48.920;12.882;2022-08-30T03:20:36;10.77;;;9.18;;
52306;SDS011;38249;48.920;12.882;2022-08-30T03:23:03;11.27;;;8.45;;
52306;SDS011;38249;48.920;12.882;2022-08-30T03:25:31;10.25;;;9.15;;
52306;SDS011;38249;48.920;12.882;2022-08-30T03:27:58;11.85;;;10.02;;
52306;SDS011;38249;48.920;12.882;2022-08-30T03:30:25;9.50;;;8.18;;
52306;SDS011;38249;48.920;12.882;2022-08-30T03:32:52;8.23;;;7.43;;
52306;SDS011;38249;48.920;12.882;2022-08-30T03:35:18;8.65;;;7.65;;
52306;SDS011;38249;48.920;12.882;2022-08-30T03:37:45;8.88;;;7.97;;
52306;SDS011;38249;48.920;12.882;2022-08-30T03:40:12;9.98;;;7.85;;
52306;SDS011;38249;48.920;12.882;2022-08-30T03:42:42;10.80;;;8.85;;
52306;SDS011;38249;48.920;12.882;2022-08-30T03:45:09;11.65;;;8.43;;
52306;SDS011;38249;48.920;12.882;2022-08-30T03:47:36;22.70;;;18.83;;
52306;SDS011;38249;48.920;12.882;2022-08-30T03:50:04;17.80;;;15.07;;
52306;SDS011;38249;48.920;12.882;2022-08-30T03:52:31;13.88;;;11.85;;
52306;SDS011;38249;48.920;12.882;2022-08-30T03:54:58;21.85;;;18.73;;
52306;SDS011;38249;48.920;12.882;2022-08-30T03:57:25;14.10;;;12.55;;
52306;SDS011;38249;48.920;12.882;2022-08-30T03:59:53;12.98;;;10.93;;
52306;SDS011;38249;48.920;12.882;2022-08-30T04:02:19;20.35;;;16.88;;
52306;SDS011;38249;48.920;12.882;2022-08-30T04:04:46;23.63;;;18.02;;
52306;SDS011;38249;48.920;12.882;2022-08-30T04:07:12;12.13;;;9.65;;
52306;SDS011;38249;48.920;12.882;2022-08-30T04:09:39;9.82;;;8.82;;
52306;SDS011;38249;48.920;12.882;2022-08-30T04:12:05;14.43;;;12.20;;
52306;SDS011;38249;48.920;12.882;2022-08-30T04:14:33;10.98;;;9.63;;
52306;SDS011;38249;48.920;12.882;2022-08-30T04:17:01;17.00;;;13.30;;
52306;SDS011;38249;48.920;12.882;2022-08-30T04:19:27;13.25;;;11.00;;
52306;SDS011;38249;48.920;12.882;2022-08-30T04:21:54;30.60;;;24.27;;
52306;SDS011;38249;48.920;12.882;2022-08-30T04:24:21;16.35;;;14.57;;
52306;SDS011;38249;48.920;12.882;2022-08-30T04:26:48;23.73;;;17.35;;
52306;SDS011;38249;48.920;12.882;2022-08-30T04:29:14;13.77;;;10.20;;
52306;SDS011;38249;48.920;12.882;2022-08-30T04:31:41;16.77;;;14.73;;
52306;SDS011;38249;48.920;12.882;2022-08-30T04:34:09;23.58;;;21.00;;
52306;SDS011;38249;48.920;12.882;2022-08-30T04:36:37;13.05;;;10.90;;
52306;SDS011;38249;48.920;12.882;2022-08-30T04:39:03;16.33;;;12.40;;
52306;SDS011;38249;48.920;12.882;2022-08-30T04:41:30;18.55;;;15.70;;
52306;SDS011;38249;48.920;12.882;2022-08-30T04:43:57;16.88;;;11.02;;
52306;SDS011;38249;48.920;12.882;2022-08-30T04:46:27;17.35;;;13.55;;
52306;SDS011;38249;48.920;12.882;2022-08-30T04:48:54;12.15;;;10.65;;
52306;SDS011;38249;48.920;12.882;2022-08-30T04:51:22;19.17;;;14.32;;
52306;SDS011;38249;48.920;12.882;2022-08-30T04:53:49;16.17;;;12.98;;
52306;SDS011;38249;48.920;12.882;2022-08-30T04:56:16;16.15;;;14.30;;
52306;SDS011;38249;48.920;12.882;2022-08-30T04:58:47;21.42;;;15.30;;
52306;SDS011;38249;48.920;12.882;2022-08-30T05:01:15;10.88;;;9.68;;
52306;SDS011;38249;48.920;12.882;2022-08-30T05:03:44;14.75;;;11.27;;
52306;SDS011;38249;48.920;12.882;2022-08-30T05:06:10;18.15;;;13.27;;
52306;SDS011;38249;48.920;12.882;2022-08-30T05:08:39;15.63;;;12.15;;
52306;SDS011;38249;48.920;12.882;2022-08-30T05:11:05;15.50;;;11.52;;
52306;SDS011;38249;48.920;12.882;2022-08-30T05:13:33;13.88;;;10.63;;
52306;SDS011;38249;48.920;12.882;2022-08-30T05:16:00;14.23;;;11.35;;
52306;SDS011;38249;48.920;12.882;2022-08-30T05:18:27;29.67;;;24.70;;
52306;SDS011;38249;48.920;12.882;2022-08-30T05:21:01;10.85;;;9.13;;
52306;SDS011;38249;48.920;12.882;2022-08-30T05:23:28;22.60;;;18.48;;
52306;SDS011;38249;48.920;12.882;2022-08-30T05:25:56;15.20;;;12.27;;
52306;SDS011;38249;48.920;12.882;2022-08-30T05:28:22;17.67;;;14.30;;
52306;SDS011;38249;48.920;12.882;2022-08-30T05:30:49;19.13;;;16.13;;
52306;SDS011;38249;48.920;12.882;2022-08-30T05:33:15;14.00;;;11.80;;
52306;SDS011;38249;48.920;12.882;2022-08-30T05:35:42;15.90;;;12.18;;
52306;SDS011;38249;48.920;12.882;2022-08-30T05:38:08;11.07;;;9.98;;
52306;SDS011;38249;48.920;12.882;2022-08-30T05:40:38;11.38;;;9.15;;
52306;SDS011;38249;48.920;12.882;2022-08-30T05:43:06;12.02;;;9.73;;
52306;SDS011;38249;48.920;12.882;2022-08-30T05:45:33;16.75;;;14.32;;
52306;SDS011;38249;48.920;12.882;2022-08-30T05:48:00;13.50;;;11.35;;
52306;SDS011;38249;48.920;12.882;2022-08-30T05:50:26;11.43;;;9.52;;
52306;SDS011;38249;48.920;12.882;2022-08-30T05:52:53;9.77;;;8.77;;
52306;SDS011;38249;48.920;12.882;2022-08-30T05:55:19;12.68;;;10.30;;
52306;SDS011;38249;48.920;12.882;2022-08-30T05:57:46;10.63;;;8.63;;
52306;SDS011;38249;48.920;12.882;2022-08-30T06:00:15;11.02;;;8.68;;
52306;SDS011;38249;48.920;12.882;2022-08-30T06:02:43;12.73;;;9.63;;
52306;SDS011;38249;48.920;12.882;2022-08-30T06:05:10;11.38;;;9.35;;
52306;SDS011;38249;48.920;12.882;2022-08-30T06:07:38;11.13;;;8.38;;
52306;SDS011;38249;48.920;12.882;2022-08-30T06:10:05;11.32;;;8.57;;
52306;SDS011;38249;48.920;12.882;2022-08-30T06:12:31;11.55;;;9.02;;
52306;SDS011;38249;48.920;12.882;2022-08-30T06:14:58;10.40;;;9.15;;
52306;SDS011;38249;48.920;12.882;2022-08-30T06:17:26;10.05;;;9.02;;
52306;SDS011;38249;48.920;12.882;2022-08-30T06:19:52;13.18;;;11.60;;
52306;SDS011;38249;48.920;12.882;2022-08-30T06:22:19;16.80;;;12.90;;
52306;SDS011;38249;48.920;12.882;2022-08-30T06:24:45;13.20;;;11.13;;
52306;SDS011;38249;48.920;12.882;2022-08-30T06:27:12;12.88;;;10.40;;
52306;SDS011;38249;48.920;12.882;2022-08-30T06:29:39;12.60;;;8.98;;
52306;SDS011;38249;48.920;12.882;2022-08-30T06:32:06;12.38;;;9.95;;
52306;SDS011;38249;48.920;12.882;2022-08-30T06:34:33;13.68;;;10.55;;
52306;SDS011;38249;48.920;12.882;2022-08-30T06:37:00;14.23;;;11.50;;
52306;SDS011;38249;48.920;12.882;2022-08-30T06:39:26;12.05;;;10.80;;
52306;SDS011;38249;48.920;12.882;2022-08-30T06:41:53;14.07;;;9.23;;
52306;SDS011;38249;48.920;12.882;2022-08-30T06:44:19;10.80;;;9.35;;
52306;SDS011;38249;48.920;12.882;2022-08-30T06:46:46;10.73;;;9.55;;
52306;SDS011;38249;48.920;12.882;2022-08-30T06:49:12;16.58;;;8.85;;
52306;SDS011;38249;48.920;12.882;2022-08-30T06:51:40;10.15;;;8.45;;
52306;SDS011;38249;48.920;12.882;2022-08-30T06:54:07;9.60;;;8.25;;
52306;SDS011;38249;48.920;12.882;2022-08-30T06:56:35;8.73;;;7.88;;
52306;SDS011;38249;48.920;12.882;2022-08-30T06:59:02;9.75;;;7.95;;
52306;SDS011;38249;48.920;12.882;2022-08-30T07:01:28;11.63;;;7.95;;
52306;SDS011;38249;48.920;12.882;2022-08-30T07:03:55;9.38;;;7.75;;
52306;SDS011;38249;48.920;12.882;2022-08-30T07:06:22;11.65;;;8.48;;
52306;SDS011;38249;48.920;12.882;2022-08-30T07:08:51;10.30;;;7.97;;
52306;SDS011;38249;48.920;12.882;2022-08-30T07:11:23;10.15;;;8.65;;
52306;SDS011;38249;48.920;12.882;2022-08-30T07:13:51;10.23;;;7.85;;
52306;SDS011;38249;48.920;12.882;2022-08-30T07:16:18;8.77;;;7.80;;
52306;SDS011;38249;48.920;12.882;2022-08-30T07:18:44;9.02;;;7.78;;
52306;SDS011;38249;48.920;12.882;2022-08-30T07:21:20;7.70;;;6.93;;
52306;SDS011;38249;48.920;12.882;2022-08-30T07:23:48;9.60;;;7.28;;
52306;SDS011;38249;48.920;12.882;2022-08-30T07:26:17;11.60;;;7.95;;
52306;SDS011;38249;48.920;12.882;2022-08-30T07:28:47;8.15;;;6.72;;
52306;SDS011;38249;48.920;12.882;2022-08-30T07:31:15;8.80;;;7.45;;
52306;SDS011;38249;48.920;12.882;2022-08-30T07:33:43;9.63;;;7.63;;
52306;SDS011;38249;48.920;12.882;2022-08-30T07:36:10;13.20;;;7.10;;
52306;SDS011;38249;48.920;12.882;2022-08-30T07:38:37;7.90;;;7.10;;
52306;SDS011;38249;48.920;12.882;2022-08-30T07:41:03;11.05;;;9.40;;
52306;SDS011;38249;48.920;12.882;2022-08-30T07:43:32;9.50;;;7.90;;
52306;SDS011;38249;48.920;12.882;2022-08-30T07:46:00;10.27;;;7.10;;
52306;SDS011;38249;48.920;12.882;2022-08-30T07:48:27;9.02;;;6.72;;
52306;SDS011;38249;48.920;12.882;2022-08-30T07:50:53;7.35;;;6.60;;
52306;SDS011;38249;48.920;12.882;2022-08-30T07:53:20;7.60;;;6.85;;
52306;SDS011;38249;48.920;12.882;2022-08-30T07:55:46;9.20;;;6.80;;
52306;SDS011;38249;48.920;12.882;2022-08-30T07:58:13;7.70;;;6.18;;
52306;SDS011;38249;48.920;12.882;2022-08-30T08:00:41;7.88;;;6.50;;
52306;SDS011;38249;48.920;12.882;2022-08-30T08:03:08;7.07;;;6.38;;
52306;SDS011;38249;48.920;12.882;2022-08-30T08:05:38;6.97;;;6.30;;
52306;SDS011;38249;48.920;12.882;2022-08-30T08:08:06;7.22;;;6.53;;
52306;SDS011;38249;48.920;12.882;2022-08-30T08:10:34;7.03;;;5.60;;
52306;SDS011;38249;48.920;12.882;2022-08-30T08:13:01;7.30;;;6.15;;
52306;SDS011;38249;48.920;12.882;2022-08-30T08:15:27;6.40;;;5.80;;
52306;SDS011;38249;48.920;12.882;2022-08-30T08:17:55;8.63;;;5.75;;
52306;SDS011;38249;48.920;12.882;2022-08-30T08:20:22;7.20;;;6.50;;
52306;SDS011;38249;48.920;12.882;2022-08-30T08:22:50;6.50;;;5.88;;
52306;SDS011;38249;48.920;12.882;2022-08-30T08:25:16;7.75;;;6.25;;
52306;SDS011;38249;48.920;12.882;2022-08-30T08:27:45;6.40;;;5.78;;
52306;SDS011;38249;48.920;12.882;2022-08-30T08:30:13;7.75;;;6.20;;
52306;SDS011;38249;48.920;12.882;2022-08-30T08:32:40;7.05;;;6.35;;
52306;SDS011;38249;48.920;12.882;2022-08-30T08:35:08;9.18;;;6.70;;
52306;SDS011;38249;48.920;12.882;2022-08-30T08:37:35;6.32;;;5.72;;
52306;SDS011;38249;48.920;12.882;2022-08-30T08:40:02;6.47;;;5.78;;
52306;SDS011;38249;48.920;12.882;2022-08-30T08:42:31;6.70;;;6.00;;
52306;SDS011;38249;48.920;12.882;2022-08-30T08:45:10;10.60;;;6.35;;
52306;SDS011;38249;48.920;12.882;2022-08-30T08:47:40;6.80;;;5.72;;
52306;SDS011;38249;48.920;12.882;2022-08-30T08:50:18;9.82;;;6.70;;
52306;SDS011;38249;48.920;12.882;2022-08-30T08:52:47;6.78;;;6.13;;
52306;SDS011;38249;48.920;12.882;2022-08-30T08:55:33;5.93;;;5.43;;
52306;SDS011;38249;48.920;12.882;2022-08-30T08:58:02;6.43;;;5.47;;
52306;SDS011;38249;48.920;12.882;2022-08-30T09:00:29;6.38;;;5.20;;
52306;SDS011;38249;48.920;12.882;2022-08-30T09:02:57;5.13;;;4.63;;
52306;SDS011;38249;48.920;12.882;2022-08-30T09:05:28;5.95;;;5.35;;
52306;SDS011;38249;48.920;12.882;2022-08-30T09:08:05;5.20;;;4.70;;
52306;SDS011;38249;48.920;12.882;2022-08-30T09:10:34;5.28;;;4.60;;
52306;SDS011;38249;48.920;12.882;2022-08-30T09:13:00;6.88;;;5.50;;
52306;SDS011;38249;48.920;12.882;2022-08-30T09:15:28;5.95;;;5.40;;
52306;SDS011;38249;48.920;12.882;2022-08-30T09:17:59;8.48;;;5.05;;
52306;SDS011;38249;48.920;12.882;2022-08-30T09:20:30;5.65;;;5.00;;
52306;SDS011;38249;48.920;12.882;2022-08-30T09:22:58;6.45;;;5.90;;
52306;SDS011;38249;48.920;12.882;2022-08-30T09:25:48;5.97;;;5.38;;
52306;SDS011;38249;48.920;12.882;2022-08-30T09:28:19;5.85;;;4.88;;
52306;SDS011;38249;48.920;12.882;2022-08-30T09:30:57;5.22;;;4.72;;
52306;SDS011;38249;48.920;12.882;2022-08-30T09:33:26;8.30;;;7.50;;
52306;SDS011;38249;48.920;12.882;2022-08-30T09:35:54;5.90;;;5.40;;
52306;SDS011;38249;48.920;12.882;2022-08-30T09:38:22;6.05;;;5.35;;
52306;SDS011;38249;48.920;12.882;2022-08-30T09:40:54;5.95;;;5.43;;
52306;SDS011;38249;48.920;12.882;2022-08-30T09:43:23;5.88;;;5.13;;
52306;SDS011;38249;48.920;12.882;2022-08-30T09:46:04;5.72;;;4.50;;
52306;SDS011;38249;48.920;12.882;2022-08-30T09:48:34;5.57;;;4.60;;
52306;SDS011;38249;48.920;12.882;2022-08-30T09:54:00;5.30;;;4.90;;
52306;SDS011;38249;48.920;12.882;2022-08-30T09:56:37;4.70;;;4.30;;
52306;SDS011;38249;48.920;12.882;2022-08-30T09:59:10;5.28;;;4.78;;
52306;SDS011;38249;48.920;12.882;2022-08-30T10:01:51;5.88;;;4.90;;
52306;SDS011;38249;48.920;12.882;2022-08-30T10:04:27;4.88;;;4.47;;
52306;SDS011;38249;48.920;12.882;2022-08-30T10:07:03;5.45;;;4.95;;
52306;SDS011;38249;48.920;12.882;2022-08-30T10:09:37;5.95;;;5.38;;
52306;SDS011;38249;48.920;12.882;2022-08-30T10:12:14;7.18;;;6.35;;
52306;SDS011;38249;48.920;12.882;2022-08-30T10:14:54;4.80;;;4.40;;
52306;SDS011;38249;48.920;12.882;2022-08-30T10:17:31;4.88;;;4.50;;
52306;SDS011;38249;48.920;12.882;2022-08-30T10:20:11;4.93;;;4.45;;
52306;SDS011;38249;48.920;12.882;2022-08-30T10:22:45;5.72;;;4.25;;
52306;SDS011;38249;48.920;12.882;2022-08-30T10:27:45;5.25;;;4.75;;
52306;SDS011;38249;48.920;12.882;2022-08-30T10:30:16;4.75;;;4.45;;
52306;SDS011;38249;48.920;12.882;2022-08-30T10:32:45;4.88;;;4.38;;
52306;SDS011;38249;48.920;12.882;2022-08-30T10:35:16;4.95;;;4.43;;
52306;SDS011;38249;48.920;12.882;2022-08-30T10:37:49;4.90;;;4.50;;
52306;SDS011;38249;48.920;12.882;2022-08-30T10:40:20;4.95;;;4.30;;
52306;SDS011;38249;48.920;12.882;2022-08-30T10:43:25;4.55;;;3.80;;
52306;SDS011;38249;48.920;12.882;2022-08-30T10:45:58;4.30;;;3.85;;
52306;SDS011;38249;48.920;12.882;2022-08-30T10:48:33;4.88;;;4.38;;
52306;SDS011;38249;48.920;12.882;2022-08-30T10:51:06;5.13;;;4.63;;
52306;SDS011;38249;48.920;12.882;2022-08-30T10:53:38;5.47;;;4.15;;
52306;SDS011;38249;48.920;12.882;2022-08-30T10:56:09;5.82;;;3.85;;
52306;SDS011;38249;48.920;12.882;2022-08-30T10:58:38;4.55;;;4.15;;
52306;SDS011;38249;48.920;12.882;2022-08-30T11:01:14;4.57;;;3.88;;
52306;SDS011;38249;48.920;12.882;2022-08-30T11:06:58;5.05;;;4.00;;
52306;SDS011;38249;48.920;12.882;2022-08-30T11:09:35;6.63;;;4.40;;
52306;SDS011;38249;48.920;12.882;2022-08-30T11:15:10;4.85;;;3.80;;
52306;SDS011;38249;48.920;12.882;2022-08-30T11:17:43;4.20;;;3.75;;
52306;SDS011;38249;48.920;12.882;2022-08-30T11:20:20;4.17;;;3.77;;
52306;SDS011;38249;48.920;12.882;2022-08-30T11:23:13;5.30;;;3.63;;
52306;SDS011;38249;48.920;12.882;2022-08-30T11:25:49;4.72;;;3.45;;
52306;SDS011;38249;48.920;12.882;2022-08-30T11:31:31;3.75;;;3.30;;
52306;SDS011;38249;48.920;12.882;2022-08-30T11:34:00;4.95;;;4.07;;
52306;SDS011;38249;48.920;12.882;2022-08-30T11:39:43;5.43;;;3.55;;
52306;SDS011;38249;48.920;12.882;2022-08-30T11:42:27;5.72;;;3.45;;
52306;SDS011;38249;48.920;12.882;2022-08-30T11:48:00;3.72;;;3.10;;
52306;SDS011;38249;48.920;12.882;2022-08-30T11:50:30;3.97;;;3.58;;
52306;SDS011;38249;48.920;12.882;2022-08-30T11:53:00;4.00;;;3.70;;
52306;SDS011;38249;48.920;12.882;2022-08-30T11:55:40;4.35;;;3.42;;
52306;SDS011;38249;48.920;12.882;2022-08-30T11:58:21;3.97;;;3.13;;
52306;SDS011;38249;48.920;12.882;2022-08-30T12:01:18;4.45;;;3.47;;
52306;SDS011;38249;48.920;12.882;2022-08-30T12:03:57;3.97;;;3.45;;
52306;SDS011;38249;48.920;12.882;2022-08-30T12:06:43;4.28;;;3.88;;
52306;SDS011;38249;48.920;12.882;2022-08-30T12:09:14;4.85;;;3.20;;
52306;SDS011;38249;48.920;12.882;2022-08-30T12:12:46;5.45;;;3.47;;
52306;SDS011;38249;48.920;12.882;2022-08-30T12:18:25;4.75;;;3.60;;
52306;SDS011;38249;48.920;12.882;2022-08-30T12:21:08;4.00;;;3.70;;
52306;SDS011;38249;48.920;12.882;2022-08-30T12:23:39;4.82;;;4.40;;
52306;SDS011;38249;48.920;12.882;2022-08-30T12:26:19;5.97;;;3.58;;
52306;SDS011;38249;48.920;12.882;2022-08-30T12:29:07;3.70;;;3.40;;
52306;SDS011;38249;48.920;12.882;2022-08-30T12:31:38;4.45;;;3.65;;
52306;SDS011;38249;48.920;12.882;2022-08-30T12:34:06;6.88;;;4.13;;
52306;SDS011;38249;48.920;12.882;2022-08-30T12:36:34;3.60;;;3.30;;
52306;SDS011;38249;48.920;12.882;2022-08-30T12:39:08;5.93;;;4.00;;
52306;SDS011;38249;48.920;12.882;2022-08-30T12:41:37;4.30;;;3.50;;
52306;SDS011;38249;48.920;12.882;2022-08-30T12:44:07;3.80;;;3.50;;
52306;SDS011;38249;48.920;12.882;2022-08-30T12:46:38;4.93;;;3.60;;
52306;SDS011;38249;48.920;12.882;2022-08-30T12:49:06;3.67;;;3.38;;
52306;SDS011;38249;48.920;12.882;2022-08-30T12:51:35;3.90;;;3.50;;
52306;SDS011;38249;48.920;12.882;2022-08-30T12:54:04;5.13;;;3.90;;
52306;SDS011;38249;48.920;12.882;2022-08-30T12:56:44;5.50;;;4.13;;
52306;SDS011;38249;48.920;12.882;2022-08-30T13:02:06;10.60;;;7.47;;
52306;SDS011;38249;48.920;12.882;2022-08-30T13:04:37;5.28;;;4.78;;
52306;SDS011;38249;48.920;12.882;2022-08-30T13:07:03;5.88;;;4.25;;
52306;SDS011;38249;48.920;12.882;2022-08-30T13:09:30;6.05;;;5.45;;
52306;SDS011;38249;48.920;12.882;2022-08-30T13:12:00;5.72;;;5.18;;
52306;SDS011;38249;48.920;12.882;2022-08-30T13:14:32;8.50;;;4.90;;
52306;SDS011;38249;48.920;12.882;2022-08-30T13:19:33;6.68;;;5.97;;
52306;SDS011;38249;48.920;12.882;2022-08-30T13:22:02;8.38;;;7.68;;
52306;SDS011;38249;48.920;12.882;2022-08-30T13:24:29;5.90;;;5.30;;
52306;SDS011;38249;48.920;12.882;2022-08-30T13:26:57;9.77;;;7.20;;
52306;SDS011;38249;48.920;12.882;2022-08-30T13:29:33;11.10;;;10.00;;
52306;SDS011;38249;48.920;12.882;2022-08-30T13:32:01;7.45;;;6.75;;
52306;SDS011;38249;48.920;12.882;2022-08-30T13:34:29;5.18;;;4.68;;
52306;SDS011;38249;48.920;12.882;2022-08-30T13:36:57;5.05;;;4.53;;
52306;SDS011;38249;48.920;12.882;2022-08-30T13:39:24;7.22;;;5.38;;
52306;SDS011;38249;48.920;12.882;2022-08-30T13:41:51;4.82;;;4.35;;
52306;SDS011;38249;48.920;12.882;2022-08-30T13:44:18;5.13;;;4.38;;
52306;SDS011;38249;48.920;12.882;2022-08-30T13:46:46;5.28;;;4.20;;
52306;SDS011;38249;48.920;12.882;2022-08-30T13:49:16;6.28;;;5.03;;
52306;SDS011;38249;48.920;12.882;2022-08-30T13:51:46;4.97;;;4.50;;
52306;SDS011;38249;48.920;12.882;2022-08-30T13:54:15;6.07;;;5.47;;
52306;SDS011;38249;48.920;12.882;2022-08-30T13:56:42;5.78;;;5.20;;
52306;SDS011;38249;48.920;12.882;2022-08-30T13:59:09;5.65;;;4.93;;
52306;SDS011;38249;48.920;12.882;2022-08-30T14:01:35;6.18;;;4.80;;
52306;SDS011;38249;48.920;12.882;2022-08-30T14:04:02;6.47;;;4.95;;
52306;SDS011;38249;48.920;12.882;2022-08-30T14:06:28;5.32;;;4.82;;
52306;SDS011;38249;48.920;12.882;2022-08-30T14:08:56;5.32;;;4.82;;
52306;SDS011;38249;48.920;12.882;2022-08-30T14:11:23;5.75;;;5.10;;
52306;SDS011;38249;48.920;12.882;2022-08-30T14:13:50;5.57;;;5.03;;
52306;SDS011;38249;48.920;12.882;2022-08-30T14:16:17;6.45;;;4.90;;
52306;SDS011;38249;48.920;12.882;2022-08-30T14:18:44;5.95;;;5.45;;
52306;SDS011;38249;48.920;12.882;2022-08-30T14:21:10;5.88;;;5.35;;
52306;SDS011;38249;48.920;12.882;2022-08-30T14:23:37;6.20;;;5.40;;
52306;SDS011;38249;48.920;12.882;2022-08-30T14:26:08;5.72;;;5.18;;
52306;SDS011;38249;48.920;12.882;2022-08-30T14:28:36;5.90;;;5.40;;
52306;SDS011;38249;48.920;12.882;2022-08-30T14:31:03;7.28;;;5.90;;
52306;SDS011;38249;48.920;12.882;2022-08-30T14:33:29;7.05;;;5.47;;
52306;SDS011;38249;48.920;12.882;2022-08-30T14:35:56;6.00;;;5.47;;
52306;SDS011;38249;48.920;12.882;2022-08-30T14:38:22;6.03;;;5.43;;
52306;SDS011;38249;48.920;12.882;2022-08-30T14:40:49;6.15;;;5.55;;
52306;SDS011;38249;48.920;12.882;2022-08-30T14:43:17;6.50;;;5.82;;
52306;SDS011;38249;48.920;12.882;2022-08-30T14:45:43;5.68;;;5.05;;
52306;SDS011;38249;48.920;12.882;2022-08-30T14:48:10;6.70;;;4.80;;
52306;SDS011;38249;48.920;12.882;2022-08-30T14:50:36;5.57;;;4.63;;
52306;SDS011;38249;48.920;12.882;2022-08-30T14:53:04;5.93;;;4.60;;
52306;SDS011;38249;48.920;12.882;2022-08-30T14:55:32;4.97;;;4.47;;
52306;SDS011;38249;48.920;12.882;2022-08-30T14:57:59;5.53;;;5.03;;
52306;SDS011;38249;48.920;12.882;2022-08-30T15:00:27;6.00;;;4.70;;
52306;SDS011;38249;48.920;12.882;2022-08-30T15:02:54;6.82;;;5.30;;
52306;SDS011;38249;48.920;12.882;2022-08-30T15:05:20;7.35;;;5.22;;
52306;SDS011;38249;48.920;12.882;2022-08-30T15:07:47;9.70;;;7.05;;
52306;SDS011;38249;48.920;12.882;2022-08-30T15:10:15;5.72;;;4.50;;
52306;SDS011;38249;48.920;12.882;2022-08-30T15:12:45;5.50;;;5.03;;